sensor_id;sensor_type;location;lat;lon;timestamp;pressure;altitude;pressure_sealevel;temperature;humidity
23427;BME280;41148;45.420;10.952;2023-02-13T00:00:24;102886.00;;;6.81;52.43
23427;BME280;41148;45.420;10.952;2023-02-13T00:02:51;102882.09;;;6.66;53.07
23427;BME280;41148;45.420;10.952;2023-02-13T00:05:19;102884.66;;;6.61;53.15
23427;BME280;41148;45.420;10.952;2023-02-13T00:07:46;102886.50;;;6.65;53.08
23427;BME280;41148;45.420;10.952;2023-02-13T00:10:14;102888.03;;;6.55;53.55
23427;BME280;41148;45.420;10.952;2023-02-13T00:12:41;102879.16;;;6.52;53.45
23427;BME280;41148;45.420;10.952;2023-02-13T00:15:09;102878.50;;;6.26;54.33
23427;BME280;41148;45.420;10.952;2023-02-13T00:17:36;102885.28;;;6.15;54.73
23427;BME280;41148;45.420;10.952;2023-02-13T00:20:05;102889.66;;;6.13;55.00
23427;BME280;41148;45.420;10.952;2023-02-13T00:22:36;102889.44;;;6.03;55.16
23427;BME280;41148;45.420;10.952;2023-02-13T00:25:04;102886.72;;;6.00;55.39
23427;BME280;41148;45.420;10.952;2023-02-13T00:27:32;102888.50;;;6.01;55.58
23427;BME280;41148;45.420;10.952;2023-02-13T00:30:02;102884.41;;;6.14;55.01
23427;BME280;41148;45.420;10.952;2023-02-13T00:32:30;102894.25;;;6.20;54.90
23427;BME280;41148;45.420;10.952;2023-02-13T00:35:17;102889.09;;;6.26;54.71
23427;BME280;41148;45.420;10.952;2023-02-13T00:37:44;102880.94;;;6.17;54.78
23427;BME280;41148;45.420;10.952;2023-02-13T00:40:12;102898.44;;;6.10;55.28
23427;BME280;41148;45.420;10.952;2023-02-13T00:42:39;102892.22;;;6.08;55.16
23427;BME280;41148;45.420;10.952;2023-02-13T00:45:07;102898.16;;;5.99;55.34
23427;BME280;41148;45.420;10.952;2023-02-13T00:47:34;102900.84;;;6.01;55.32
23427;BME280;41148;45.420;10.952;2023-02-13T00:50:02;102905.91;;;5.93;55.54
23427;BME280;41148;45.420;10.952;2023-02-13T00:52:29;102905.09;;;5.96;55.20
23427;BME280;41148;45.420;10.952;2023-02-13T00:54:57;102911.31;;;5.98;55.52
23427;BME280;41148;45.420;10.952;2023-02-13T00:57:24;102905.09;;;5.96;55.15
23427;BME280;41148;45.420;10.952;2023-02-13T00:59:52;102898.28;;;5.72;55.97
23427;BME280;41148;45.420;10.952;2023-02-13T01:02:19;102903.38;;;5.66;55.97
23427;BME280;41148;45.420;10.952;2023-02-13T01:04:46;102905.13;;;5.34;56.73
23427;BME280;41148;45.420;10.952;2023-02-13T01:07:14;102907.97;;;5.40;56.84
23427;BME280;41148;45.420;10.952;2023-02-13T01:09:43;102910.59;;;5.40;57.35
23427;BME280;41148;45.420;10.952;2023-02-13T01:12:11;102914.88;;;5.37;57.85
23427;BME280;41148;45.420;10.952;2023-02-13T01:14:38;102902.44;;;5.33;57.41
23427;BME280;41148;45.420;10.952;2023-02-13T01:17:05;102913.88;;;5.32;57.26
23427;BME280;41148;45.420;10.952;2023-02-13T01:19:33;102914.84;;;5.35;57.30
23427;BME280;41148;45.420;10.952;2023-02-13T01:22:00;102908.66;;;5.35;57.33
23427;BME280;41148;45.420;10.952;2023-02-13T01:24:27;102910.22;;;5.28;57.33
23427;BME280;41148;45.420;10.952;2023-02-13T01:26:57;102904.69;;;5.19;57.76
23427;BME280;41148;45.420;10.952;2023-02-13T01:29:25;102911.91;;;5.25;57.73
23427;BME280;41148;45.420;10.952;2023-02-13T01:31:52;102915.34;;;5.22;57.88
23427;BME280;41148;45.420;10.952;2023-02-13T01:34:19;102914.31;;;5.17;57.96
23427;BME280;41148;45.420;10.952;2023-02-13T01:36:47;102915.88;;;5.10;58.29
23427;BME280;41148;45.420;10.952;2023-02-13T01:39:14;102899.81;;;5.03;58.40
23427;BME280;41148;45.420;10.952;2023-02-13T01:41:43;102909.28;;;4.96;58.55
23427;BME280;41148;45.420;10.952;2023-02-13T01:47:21;102901.47;;;5.01;58.80
23427;BME280;41148;45.420;10.952;2023-02-13T01:49:58;102893.69;;;4.75;59.42
23427;BME280;41148;45.420;10.952;2023-02-13T01:52:29;102903.38;;;4.76;59.81
23427;BME280;41148;45.420;10.952;2023-02-13T01:54:57;102902.59;;;4.79;59.63
23427;BME280;41148;45.420;10.952;2023-02-13T01:57:27;102901.19;;;4.92;59.46
23427;BME280;41148;45.420;10.952;2023-02-13T02:00:15;102900.03;;;4.82;59.76
23427;BME280;41148;45.420;10.952;2023-02-13T02:02:48;102898.97;;;4.75;59.97
23427;BME280;41148;45.420;10.952;2023-02-13T02:05:21;102892.88;;;4.78;60.04
23427;BME280;41148;45.420;10.952;2023-02-13T02:07:52;102898.91;;;4.74;60.30
23427;BME280;41148;45.420;10.952;2023-02-13T02:10:22;102908.38;;;4.67;60.68
23427;BME280;41148;45.420;10.952;2023-02-13T02:13:12;102901.00;;;4.84;60.41
23427;BME280;41148;45.420;10.952;2023-02-13T02:15:41;102897.78;;;4.94;59.96
23427;BME280;41148;45.420;10.952;2023-02-13T02:18:35;102886.59;;;4.74;60.30
23427;BME280;41148;45.420;10.952;2023-02-13T02:24:02;102897.00;;;4.70;60.74
23427;BME280;41148;45.420;10.952;2023-02-13T02:29:54;102887.94;;;4.62;61.06
23427;BME280;41148;45.420;10.952;2023-02-13T02:35:39;102890.06;;;4.45;61.70
23427;BME280;41148;45.420;10.952;2023-02-13T02:46:28;102874.38;;;4.49;61.64
23427;BME280;41148;45.420;10.952;2023-02-13T02:49:06;102881.47;;;4.52;61.48
23427;BME280;41148;45.420;10.952;2023-02-13T02:52:03;102870.78;;;4.47;61.64
23427;BME280;41148;45.420;10.952;2023-02-13T02:54:54;102876.13;;;4.49;61.54
23427;BME280;41148;45.420;10.952;2023-02-13T02:57:44;102880.63;;;4.53;61.27
23427;BME280;41148;45.420;10.952;2023-02-13T03:00:34;102874.94;;;4.68;60.94
23427;BME280;41148;45.420;10.952;2023-02-13T03:03:24;102872.34;;;4.69;60.87
23427;BME280;41148;45.420;10.952;2023-02-13T03:06:17;102869.28;;;4.55;60.98
23427;BME280;41148;45.420;10.952;2023-02-13T03:08:53;102869.34;;;4.57;60.87
23427;BME280;41148;45.420;10.952;2023-02-13T03:11:41;102879.75;;;4.52;61.18
23427;BME280;41148;45.420;10.952;2023-02-13T03:14:29;102872.28;;;4.39;61.61
23427;BME280;41148;45.420;10.952;2023-02-13T03:16:57;102880.06;;;4.35;61.73
23427;BME280;41148;45.420;10.952;2023-02-13T03:19:56;102869.13;;;4.24;62.29
23427;BME280;41148;45.420;10.952;2023-02-13T03:23:12;102874.28;;;4.19;62.85
23427;BME280;41148;45.420;10.952;2023-02-13T03:28:40;102878.25;;;4.07;63.00
23427;BME280;41148;45.420;10.952;2023-02-13T03:31:35;102875.75;;;4.11;62.54
23427;BME280;41148;45.420;10.952;2023-02-13T03:34:09;102885.72;;;4.20;62.77
23427;BME280;41148;45.420;10.952;2023-02-13T03:36:54;102881.38;;;4.22;62.56
23427;BME280;41148;45.420;10.952;2023-02-13T03:40:03;102876.75;;;4.15;62.74
23427;BME280;41148;45.420;10.952;2023-02-13T03:42:40;102869.28;;;4.01;63.09
23427;BME280;41148;45.420;10.952;2023-02-13T03:45:16;102879.84;;;4.01;63.37
23427;BME280;41148;45.420;10.952;2023-02-13T03:48:06;102880.19;;;4.12;63.13
23427;BME280;41148;45.420;10.952;2023-02-13T03:51:01;102882.75;;;4.09;63.14
23427;BME280;41148;45.420;10.952;2023-02-13T03:53:32;102882.69;;;4.08;63.20
23427;BME280;41148;45.420;10.952;2023-02-13T03:56:01;102875.50;;;4.03;63.55
23427;BME280;41148;45.420;10.952;2023-02-13T03:58:51;102882.31;;;3.97;63.68
23427;BME280;41148;45.420;10.952;2023-02-13T04:01:38;102874.78;;;4.08;63.40
23427;BME280;41148;45.420;10.952;2023-02-13T04:06:48;102887.69;;;4.00;63.95
23427;BME280;41148;45.420;10.952;2023-02-13T04:09:18;102887.66;;;3.98;63.78
23427;BME280;41148;45.420;10.952;2023-02-13T04:14:37;102890.38;;;4.01;63.81
23427;BME280;41148;45.420;10.952;2023-02-13T04:17:14;102885.09;;;4.01;63.50
23427;BME280;41148;45.420;10.952;2023-02-13T04:19:43;102890.00;;;4.16;63.33
23427;BME280;41148;45.420;10.952;2023-02-13T04:22:11;102889.84;;;4.12;63.61
23427;BME280;41148;45.420;10.952;2023-02-13T04:24:39;102871.66;;;3.94;63.86
23427;BME280;41148;45.420;10.952;2023-02-13T04:27:07;102891.13;;;3.97;64.15
23427;BME280;41148;45.420;10.952;2023-02-13T04:29:34;102874.59;;;4.03;63.68
23427;BME280;41148;45.420;10.952;2023-02-13T04:32:01;102892.31;;;4.06;63.58
23427;BME280;41148;45.420;10.952;2023-02-13T04:34:29;102890.59;;;3.82;64.31
23427;BME280;41148;45.420;10.952;2023-02-13T04:36:56;102889.38;;;3.72;64.81
23427;BME280;41148;45.420;10.952;2023-02-13T04:39:24;102890.06;;;3.92;64.69
23427;BME280;41148;45.420;10.952;2023-02-13T04:41:51;102894.72;;;3.99;64.07
23427;BME280;41148;45.420;10.952;2023-02-13T04:44:18;102894.31;;;3.87;64.30
23427;BME280;41148;45.420;10.952;2023-02-13T04:46:46;102888.75;;;3.80;64.77
23427;BME280;41148;45.420;10.952;2023-02-13T04:49:13;102896.19;;;3.91;64.47
23427;BME280;41148;45.420;10.952;2023-02-13T04:51:40;102888.50;;;3.97;64.10
23427;BME280;41148;45.420;10.952;2023-02-13T04:54:09;102891.13;;;3.97;64.09
23427;BME280;41148;45.420;10.952;2023-02-13T04:56:37;102887.25;;;3.86;64.53
23427;BME280;41148;45.420;10.952;2023-02-13T04:59:04;102884.69;;;3.89;64.22
23427;BME280;41148;45.420;10.952;2023-02-13T05:01:31;102891.13;;;3.97;64.02
23427;BME280;41148;45.420;10.952;2023-02-13T05:03:59;102897.41;;;4.01;63.94
23427;BME280;41148;45.420;10.952;2023-02-13T05:06:26;102897.44;;;4.02;63.62
23427;BME280;41148;45.420;10.952;2023-02-13T05:08:53;102894.63;;;3.96;63.56
23427;BME280;41148;45.420;10.952;2023-02-13T05:11:21;102899.81;;;3.95;63.90
23427;BME280;41148;45.420;10.952;2023-02-13T05:13:48;102900.94;;;4.01;63.94
23427;BME280;41148;45.420;10.952;2023-02-13T05:16:15;102895.03;;;3.83;64.19
23427;BME280;41148;45.420;10.952;2023-02-13T05:18:43;102902.22;;;3.87;64.18
23427;BME280;41148;45.420;10.952;2023-02-13T05:21:10;102901.56;;;3.94;63.87
23427;BME280;41148;45.420;10.952;2023-02-13T05:23:56;102897.72;;;3.85;63.83
23427;BME280;41148;45.420;10.952;2023-02-13T05:26:23;102900.88;;;3.74;64.29
23427;BME280;41148;45.420;10.952;2023-02-13T05:28:51;102905.25;;;3.74;64.42
23427;BME280;41148;45.420;10.952;2023-02-13T05:31:37;102894.94;;;3.80;64.21
23427;BME280;41148;45.420;10.952;2023-02-13T05:34:04;102909.75;;;3.77;64.34
23427;BME280;41148;45.420;10.952;2023-02-13T05:36:32;102896.66;;;3.80;64.05
23427;BME280;41148;45.420;10.952;2023-02-13T05:38:59;102899.44;;;3.84;64.00
23427;BME280;41148;45.420;10.952;2023-02-13T05:41:27;102898.72;;;3.88;64.11
23427;BME280;41148;45.420;10.952;2023-02-13T05:43:54;102898.88;;;3.93;63.71
23427;BME280;41148;45.420;10.952;2023-02-13T05:46:21;102898.06;;;3.95;63.71
23427;BME280;41148;45.420;10.952;2023-02-13T05:48:50;102904.38;;;3.99;63.26
23427;BME280;41148;45.420;10.952;2023-02-13T05:51:18;102913.44;;;3.82;64.50
23427;BME280;41148;45.420;10.952;2023-02-13T05:53:46;102918.72;;;3.82;64.71
23427;BME280;41148;45.420;10.952;2023-02-13T05:56:13;102930.44;;;3.90;64.44
23427;BME280;41148;45.420;10.952;2023-02-13T05:58:41;102913.28;;;3.77;64.99
23427;BME280;41148;45.420;10.952;2023-02-13T06:01:08;102933.16;;;3.67;65.41
23427;BME280;41148;45.420;10.952;2023-02-13T06:03:35;102933.47;;;3.77;65.61
23427;BME280;41148;45.420;10.952;2023-02-13T06:06:03;102938.81;;;3.78;65.27
23427;BME280;41148;45.420;10.952;2023-02-13T06:08:31;102942.28;;;3.77;65.61
23427;BME280;41148;45.420;10.952;2023-02-13T06:10:58;102933.81;;;3.62;66.32
23427;BME280;41148;45.420;10.952;2023-02-13T06:13:26;102940.78;;;3.60;66.24
23427;BME280;41148;45.420;10.952;2023-02-13T06:15:54;102949.53;;;3.59;66.49
23427;BME280;41148;45.420;10.952;2023-02-13T06:18:21;102952.44;;;3.42;66.55
23427;BME280;41148;45.420;10.952;2023-02-13T06:20:49;102961.34;;;3.46;66.97
23427;BME280;41148;45.420;10.952;2023-02-13T06:23:16;102956.06;;;3.46;66.52
23427;BME280;41148;45.420;10.952;2023-02-13T06:25:44;102966.44;;;3.41;67.10
23427;BME280;41148;45.420;10.952;2023-02-13T06:28:11;102959.75;;;3.27;67.92
23427;BME280;41148;45.420;10.952;2023-02-13T06:30:39;102974.44;;;3.21;68.36
23427;BME280;41148;45.420;10.952;2023-02-13T06:33:12;102962.81;;;3.15;68.62
23427;BME280;41148;45.420;10.952;2023-02-13T06:35:39;102967.47;;;3.23;68.82
23427;BME280;41148;45.420;10.952;2023-02-13T06:38:07;102970.38;;;3.29;68.23
23427;BME280;41148;45.420;10.952;2023-02-13T06:40:34;102963.41;;;3.31;68.12
23427;BME280;41148;45.420;10.952;2023-02-13T06:43:02;102968.78;;;3.34;67.92
23427;BME280;41148;45.420;10.952;2023-02-13T06:45:29;102961.81;;;3.36;68.13
23427;BME280;41148;45.420;10.952;2023-02-13T06:47:56;102945.03;;;3.32;67.98
23427;BME280;41148;45.420;10.952;2023-02-13T06:50:24;102965.84;;;3.49;68.10
23427;BME280;41148;45.420;10.952;2023-02-13T06:52:51;102972.13;;;3.52;67.97
23427;BME280;41148;45.420;10.952;2023-02-13T06:55:19;102977.78;;;3.39;68.59
23427;BME280;41148;45.420;10.952;2023-02-13T06:57:47;102967.09;;;3.36;68.48
23427;BME280;41148;45.420;10.952;2023-02-13T07:00:16;102980.06;;;3.30;68.78
23427;BME280;41148;45.420;10.952;2023-02-13T07:02:45;102985.75;;;3.40;68.19
23427;BME280;41148;45.420;10.952;2023-02-13T07:05:13;102980.69;;;3.47;68.02
23427;BME280;41148;45.420;10.952;2023-02-13T07:07:41;102971.41;;;3.34;68.04
23427;BME280;41148;45.420;10.952;2023-02-13T07:10:12;102979.88;;;3.48;67.78
23427;BME280;41148;45.420;10.952;2023-02-13T07:12:39;102978.88;;;3.45;68.03
23427;BME280;41148;45.420;10.952;2023-02-13T07:15:07;102995.69;;;3.48;67.83
23427;BME280;41148;45.420;10.952;2023-02-13T07:17:35;102975.53;;;3.50;67.91
23427;BME280;41148;45.420;10.952;2023-02-13T07:20:03;102970.22;;;3.48;68.43
23427;BME280;41148;45.420;10.952;2023-02-13T07:22:31;102983.59;;;3.54;68.11
23427;BME280;41148;45.420;10.952;2023-02-13T07:25:00;102995.53;;;3.67;67.96
23427;BME280;41148;45.420;10.952;2023-02-13T07:27:27;102992.16;;;3.71;68.51
23427;BME280;41148;45.420;10.952;2023-02-13T07:29:55;102998.41;;;3.74;68.42
23427;BME280;41148;45.420;10.952;2023-02-13T07:32:24;102984.91;;;3.65;68.49
23427;BME280;41148;45.420;10.952;2023-02-13T07:34:52;102994.28;;;3.81;68.03
23427;BME280;41148;45.420;10.952;2023-02-13T07:37:29;102994.38;;;3.84;68.07
23427;BME280;41148;45.420;10.952;2023-02-13T07:39:57;102993.09;;;3.97;67.51
23427;BME280;41148;45.420;10.952;2023-02-13T07:42:24;103001.25;;;4.05;67.16
23427;BME280;41148;45.420;10.952;2023-02-13T07:44:52;102990.72;;;4.05;67.48
23427;BME280;41148;45.420;10.952;2023-02-13T07:47:19;102998.19;;;4.16;67.43
23427;BME280;41148;45.420;10.952;2023-02-13T07:49:46;102986.00;;;4.20;67.60
23427;BME280;41148;45.420;10.952;2023-02-13T07:52:13;102982.19;;;4.37;67.07
23427;BME280;41148;45.420;10.952;2023-02-13T07:54:41;102980.75;;;4.47;66.42
23427;BME280;41148;45.420;10.952;2023-02-13T07:57:15;102981.91;;;4.55;66.66
23427;BME280;41148;45.420;10.952;2023-02-13T07:59:42;102980.19;;;4.55;66.68
23427;BME280;41148;45.420;10.952;2023-02-13T08:02:11;102978.81;;;4.68;66.38
23427;BME280;41148;45.420;10.952;2023-02-13T08:04:39;102966.13;;;4.83;65.49
23427;BME280;41148;45.420;10.952;2023-02-13T08:07:07;102974.13;;;4.86;65.86
23427;BME280;41148;45.420;10.952;2023-02-13T08:09:34;102982.28;;;4.93;65.39
23427;BME280;41148;45.420;10.952;2023-02-13T08:12:20;102972.97;;;5.05;64.72
23427;BME280;41148;45.420;10.952;2023-02-13T08:14:48;102973.31;;;5.16;64.32
23427;BME280;41148;45.420;10.952;2023-02-13T08:17:15;102979.63;;;5.21;64.14
23427;BME280;41148;45.420;10.952;2023-02-13T08:19:42;102978.28;;;5.35;63.48
23427;BME280;41148;45.420;10.952;2023-02-13T08:22:10;102970.56;;;5.41;63.05
23427;BME280;41148;45.420;10.952;2023-02-13T08:24:37;102967.31;;;6.13;60.58
23427;BME280;41148;45.420;10.952;2023-02-13T08:27:05;102966.13;;;7.50;55.97
23427;BME280;41148;45.420;10.952;2023-02-13T08:29:32;102960.56;;;8.28;52.96
23427;BME280;41148;45.420;10.952;2023-02-13T08:32:00;102951.78;;;8.83;51.30
23427;BME280;41148;45.420;10.952;2023-02-13T08:34:28;102948.69;;;9.85;48.33
23427;BME280;41148;45.420;10.952;2023-02-13T08:36:55;102942.75;;;11.23;45.04
23427;BME280;41148;45.420;10.952;2023-02-13T08:39:23;102940.38;;;12.90;41.14
23427;BME280;41148;45.420;10.952;2023-02-13T08:41:50;102944.88;;;12.32;41.71
23427;BME280;41148;45.420;10.952;2023-02-13T08:44:17;102956.28;;;11.68;43.42
23427;BME280;41148;45.420;10.952;2023-02-13T08:46:45;102941.22;;;11.81;43.23
23427;BME280;41148;45.420;10.952;2023-02-13T08:49:12;102948.44;;;12.58;41.77
23427;BME280;41148;45.420;10.952;2023-02-13T08:51:40;102950.13;;;13.16;40.21
23427;BME280;41148;45.420;10.952;2023-02-13T08:54:07;102950.22;;;12.30;41.93
23427;BME280;41148;45.420;10.952;2023-02-13T08:56:34;102951.13;;;12.57;41.62
23427;BME280;41148;45.420;10.952;2023-02-13T08:59:02;102951.94;;;13.08;40.60
23427;BME280;41148;45.420;10.952;2023-02-13T09:01:29;102942.22;;;12.46;41.62
23427;BME280;41148;45.420;10.952;2023-02-13T09:03:57;102949.34;;;12.74;41.85
23427;BME280;41148;45.420;10.952;2023-02-13T09:06:25;102954.53;;;13.43;40.77
23427;BME280;41148;45.420;10.952;2023-02-13T09:08:53;102936.25;;;14.17;38.51
23427;BME280;41148;45.420;10.952;2023-02-13T09:11:21;102931.03;;;13.95;38.80
23427;BME280;41148;45.420;10.952;2023-02-13T09:13:53;102942.97;;;13.33;40.43
23427;BME280;41148;45.420;10.952;2023-02-13T09:16:20;102935.06;;;12.17;42.38
23427;BME280;41148;45.420;10.952;2023-02-13T09:18:49;102940.78;;;10.94;45.42
23427;BME280;41148;45.420;10.952;2023-02-13T09:21:19;102940.38;;;10.41;47.24
23427;BME280;41148;45.420;10.952;2023-02-13T09:23:47;102939.16;;;10.08;48.56
23427;BME280;41148;45.420;10.952;2023-02-13T09:26:15;102945.88;;;9.74;49.30
23427;BME280;41148;45.420;10.952;2023-02-13T09:28:45;102934.41;;;9.75;49.83
23427;BME280;41148;45.420;10.952;2023-02-13T09:31:18;102952.88;;;9.64;49.52
23427;BME280;41148;45.420;10.952;2023-02-13T09:33:47;102950.47;;;9.16;50.87
23427;BME280;41148;45.420;10.952;2023-02-13T09:36:18;102936.84;;;8.92;51.82
23427;BME280;41148;45.420;10.952;2023-02-13T09:38:47;102945.78;;;8.97;52.56
23427;BME280;41148;45.420;10.952;2023-02-13T09:41:29;102951.28;;;9.09;52.20
23427;BME280;41148;45.420;10.952;2023-02-13T09:44:00;102942.50;;;9.16;51.62
23427;BME280;41148;45.420;10.952;2023-02-13T09:46:36;102944.47;;;9.29;50.86
23427;BME280;41148;45.420;10.952;2023-02-13T09:49:10;102946.91;;;9.14;51.96
23427;BME280;41148;45.420;10.952;2023-02-13T09:51:40;102942.56;;;9.19;51.02
23427;BME280;41148;45.420;10.952;2023-02-13T09:54:14;102953.25;;;9.25;50.85
23427;BME280;41148;45.420;10.952;2023-02-13T09:57:01;102941.69;;;9.22;51.27
23427;BME280;41148;45.420;10.952;2023-02-13T10:05:13;102938.28;;;9.30;51.43
23427;BME280;41148;45.420;10.952;2023-02-13T10:07:55;102945.47;;;9.37;51.43
23427;BME280;41148;45.420;10.952;2023-02-13T10:10:46;102942.75;;;9.36;51.21
23427;BME280;41148;45.420;10.952;2023-02-13T10:16:19;102934.44;;;9.80;49.61
23427;BME280;41148;45.420;10.952;2023-02-13T10:18:52;102936.25;;;9.84;50.22
23427;BME280;41148;45.420;10.952;2023-02-13T10:21:28;102935.34;;;9.83;50.17
23427;BME280;41148;45.420;10.952;2023-02-13T10:24:01;102928.03;;;9.62;50.64
23427;BME280;41148;45.420;10.952;2023-02-13T10:26:33;102940.47;;;9.65;51.86
23427;BME280;41148;45.420;10.952;2023-02-13T10:29:24;102923.75;;;9.77;51.04
23427;BME280;41148;45.420;10.952;2023-02-13T10:32:16;102923.78;;;9.78;51.37
23427;BME280;41148;45.420;10.952;2023-02-13T10:34:46;102907.03;;;9.91;52.39
23427;BME280;41148;45.420;10.952;2023-02-13T10:37:20;102920.63;;;10.17;50.88
23427;BME280;41148;45.420;10.952;2023-02-13T10:39:50;102912.75;;;10.28;50.63
23427;BME280;41148;45.420;10.952;2023-02-13T10:42:21;102904.75;;;10.25;50.52
23427;BME280;41148;45.420;10.952;2023-02-13T10:45:12;102905.66;;;10.28;50.45
23427;BME280;41148;45.420;10.952;2023-02-13T10:53:27;102889.72;;;10.36;50.97
23427;BME280;41148;45.420;10.952;2023-02-13T11:01:31;102891.41;;;10.23;50.99
23427;BME280;41148;45.420;10.952;2023-02-13T11:04:05;102895.00;;;10.28;51.13
23427;BME280;41148;45.420;10.952;2023-02-13T11:06:40;102880.75;;;10.23;50.93
23427;BME280;41148;45.420;10.952;2023-02-13T11:09:08;102882.56;;;10.30;50.88
23427;BME280;41148;45.420;10.952;2023-02-13T11:11:37;102875.66;;;10.57;50.81
23427;BME280;41148;45.420;10.952;2023-02-13T11:14:19;102877.50;;;10.70;50.36
23427;BME280;41148;45.420;10.952;2023-02-13T11:19:33;102879.38;;;10.82;50.19
23427;BME280;41148;45.420;10.952;2023-02-13T11:22:11;102869.50;;;10.66;50.71
23427;BME280;41148;45.420;10.952;2023-02-13T11:24:48;102873.94;;;10.64;50.91
23427;BME280;41148;45.420;10.952;2023-02-13T11:27:22;102866.91;;;10.75;50.85
23427;BME280;41148;45.420;10.952;2023-02-13T11:29:54;102868.72;;;10.82;51.72
23427;BME280;41148;45.420;10.952;2023-02-13T11:32:24;102867.78;;;10.78;51.60
23427;BME280;41148;45.420;10.952;2023-02-13T11:34:53;102856.34;;;10.92;51.36
23427;BME280;41148;45.420;10.952;2023-02-13T11:37:26;102854.50;;;10.81;51.32
23427;BME280;41148;45.420;10.952;2023-02-13T11:39:59;102865.19;;;10.86;51.62
23427;BME280;41148;45.420;10.952;2023-02-13T11:42:35;102847.34;;;10.79;51.70
23427;BME280;41148;45.420;10.952;2023-02-13T11:45:20;102835.84;;;10.86;52.00
23427;BME280;41148;45.420;10.952;2023-02-13T11:47:48;102843.84;;;10.81;52.14
23427;BME280;41148;45.420;10.952;2023-02-13T11:50:20;102851.06;;;11.04;52.33
23427;BME280;41148;45.420;10.952;2023-02-13T11:53:01;102840.41;;;11.13;51.70
23427;BME280;41148;45.420;10.952;2023-02-13T11:55:31;102841.38;;;11.36;51.62
23427;BME280;41148;45.420;10.952;2023-02-13T12:00:40;102842.28;;;11.43;50.88
23427;BME280;41148;45.420;10.952;2023-02-13T12:06:20;102831.53;;;11.12;51.42
23427;BME280;41148;45.420;10.952;2023-02-13T12:08:48;102839.56;;;11.22;51.56
23427;BME280;41148;45.420;10.952;2023-02-13T12:13:47;102815.56;;;11.26;51.11
23427;BME280;41148;45.420;10.952;2023-02-13T12:16:37;102828.06;;;11.39;50.95
23427;BME280;41148;45.420;10.952;2023-02-13T12:19:17;102815.63;;;11.51;50.94
23427;BME280;41148;45.420;10.952;2023-02-13T12:22:03;102818.28;;;11.43;51.31
23427;BME280;41148;45.420;10.952;2023-02-13T12:41:44;102784.47;;;11.48;50.69
23427;BME280;41148;45.420;10.952;2023-02-13T12:52:37;102777.38;;;11.52;50.14
23427;BME280;41148;45.420;10.952;2023-02-13T12:55:31;102780.03;;;11.53;49.82
23427;BME280;41148;45.420;10.952;2023-02-13T13:09:34;102765.78;;;11.53;49.76
23427;BME280;41148;45.420;10.952;2023-02-13T13:14:47;102758.69;;;11.62;49.70
23427;BME280;41148;45.420;10.952;2023-02-13T13:20:25;102749.78;;;11.60;49.53
23427;BME280;41148;45.420;10.952;2023-02-13T13:23:07;102743.56;;;11.92;48.90
23427;BME280;41148;45.420;10.952;2023-02-13T13:28:25;102749.75;;;11.57;49.36
23427;BME280;41148;45.420;10.952;2023-02-13T13:30:54;102750.66;;;11.58;49.74
23427;BME280;41148;45.420;10.952;2023-02-13T13:33:25;102748.88;;;11.64;49.60
23427;BME280;41148;45.420;10.952;2023-02-13T13:36:13;102746.28;;;11.87;48.86
23427;BME280;41148;45.420;10.952;2023-02-13T13:39:04;102746.22;;;11.66;48.70
23427;BME280;41148;45.420;10.952;2023-02-13T13:47:23;102742.66;;;11.58;49.30
23427;BME280;41148;45.420;10.952;2023-02-13T13:49:54;102753.31;;;11.56;49.33
23427;BME280;41148;45.420;10.952;2023-02-13T13:52:35;102742.66;;;11.52;49.14
23427;BME280;41148;45.420;10.952;2023-02-13T14:01:17;102735.53;;;11.72;48.81
23427;BME280;41148;45.420;10.952;2023-02-13T14:03:47;102731.09;;;11.60;48.85
23427;BME280;41148;45.420;10.952;2023-02-13T14:06:20;102738.19;;;11.55;48.93
23427;BME280;41148;45.420;10.952;2023-02-13T14:13:57;102726.63;;;11.58;49.24
23427;BME280;41148;45.420;10.952;2023-02-13T14:16:42;102722.19;;;11.46;49.57
23427;BME280;41148;45.420;10.952;2023-02-13T14:19:37;102712.38;;;11.48;49.57
23427;BME280;41148;45.420;10.952;2023-02-13T14:24:52;102706.16;;;11.57;49.31
23427;BME280;41148;45.420;10.952;2023-02-13T14:27:22;102712.41;;;11.72;48.84
23427;BME280;41148;45.420;10.952;2023-02-13T14:29:50;102716.00;;;11.82;48.67
23427;BME280;41148;45.420;10.952;2023-02-13T14:32:32;102715.97;;;11.87;48.50
23427;BME280;41148;45.420;10.952;2023-02-13T14:35:04;102715.97;;;11.91;48.45
23427;BME280;41148;45.420;10.952;2023-02-13T14:37:37;102699.94;;;11.73;48.78
23427;BME280;41148;45.420;10.952;2023-02-13T14:42:45;102714.16;;;11.75;49.04
23427;BME280;41148;45.420;10.952;2023-02-13T14:45:21;102708.84;;;11.60;49.64
23427;BME280;41148;45.420;10.952;2023-02-13T14:47:54;102704.41;;;11.69;49.61
23427;BME280;41148;45.420;10.952;2023-02-13T14:50:29;102707.06;;;11.65;49.62
23427;BME280;41148;45.420;10.952;2023-02-13T14:52:59;102714.19;;;11.61;49.87
23427;BME280;41148;45.420;10.952;2023-02-13T14:55:37;102706.19;;;11.69;49.44
23427;BME280;41148;45.420;10.952;2023-02-13T14:58:09;102699.03;;;11.57;49.71
23427;BME280;41148;45.420;10.952;2023-02-13T15:06:02;102701.72;;;11.69;49.39
23427;BME280;41148;45.420;10.952;2023-02-13T15:08:41;102704.41;;;11.63;49.54
23427;BME280;41148;45.420;10.952;2023-02-13T15:11:12;102694.59;;;11.73;49.29
23427;BME280;41148;45.420;10.952;2023-02-13T15:16:58;102697.25;;;11.67;49.40
23427;BME280;41148;45.420;10.952;2023-02-13T15:19:28;102688.34;;;11.77;49.12
23427;BME280;41148;45.420;10.952;2023-02-13T15:22:00;102704.38;;;11.57;49.59
23427;BME280;41148;45.420;10.952;2023-02-13T15:24:36;102698.16;;;11.41;50.29
23427;BME280;41148;45.420;10.952;2023-02-13T15:27:05;102691.06;;;11.39;50.46
23427;BME280;41148;45.420;10.952;2023-02-13T15:29:33;102690.16;;;11.37;50.66